Tangier, Morocco
Current Conditions -  °F | °C
As of 1:30 PM on Saturday 25 Oct 2014 (Local Time) from GMTT Reporting Station
Broken Clouds Broken Clouds  
Wind Chill: 75°   Ceiling: 20000
Heat Index: 75°   Visibility: 6mi
Dew Point: 63°   Wind: 8mph
Humidity: 65%   Direction: 250°WSW
Pressure: 30.03"   Gusts: NA
Location:  35.79°N, 5.81°W
Report Text: GMTT 251230Z 25007KT FEW016 BKN200 24/17 Q1017 NOSIG
Loading
Personal Weather Stations






























Interactive Weather Map
Tropical Storm Tracking
New forecast layout! Learn more

10-Day Weather Forecast

Advertisements
Track Severe Weather on mobile